createdAt,value
2022-11-04T00:00:00.871Z,22.17
2022-11-04T00:01:05.458Z,22.16
2022-11-04T00:02:09.867Z,22.17
2022-11-04T00:03:14.231Z,22.15
2022-11-04T00:04:18.296Z,22.16
2022-11-04T00:05:22.383Z,22.14
2022-11-04T00:06:26.519Z,22.15
2022-11-04T00:07:30.686Z,22.15
2022-11-04T00:08:34.855Z,22.15
2022-11-04T00:09:39.006Z,22.15
2022-11-04T00:10:43.099Z,22.15
2022-11-04T00:11:47.244Z,22.15
2022-11-04T00:12:51.419Z,22.13
2022-11-04T00:13:55.601Z,22.15
2022-11-04T00:14:59.718Z,22.14
2022-11-04T00:16:03.822Z,22.14
2022-11-04T00:17:07.921Z,22.11
2022-11-04T00:18:12.029Z,22.13
2022-11-04T00:19:16.162Z,22.12
2022-11-04T00:20:20.260Z,22.12
2022-11-04T00:21:24.413Z,22.1
2022-11-04T00:22:28.571Z,22.11
2022-11-04T00:23:32.725Z,22.11
2022-11-04T00:24:36.886Z,22.09
2022-11-04T00:26:45.152Z,22.09
2022-11-04T00:27:49.296Z,22.1
2022-11-04T00:28:53.454Z,22.1
2022-11-04T00:29:57.596Z,22.11
2022-11-04T00:31:01.706Z,22.1
2022-11-04T00:32:05.851Z,22.08
2022-11-04T00:33:09.982Z,22.1
2022-11-04T00:34:14.132Z,22.1
2022-11-04T00:35:18.269Z,22.08
2022-11-04T00:36:22.389Z,22.1
2022-11-04T00:37:26.557Z,22.09
2022-11-04T00:38:30.729Z,22.07
2022-11-04T00:39:34.870Z,22.07
2022-11-04T00:40:38.986Z,22.1
2022-11-04T00:41:43.136Z,22.1
2022-11-04T00:42:47.239Z,22.09
2022-11-04T00:43:51.334Z,22.11
2022-11-04T00:44:55.430Z,22.09
2022-11-04T00:45:59.571Z,22.11
2022-11-04T00:47:03.689Z,22.12
2022-11-04T00:48:08.117Z,22.12
2022-11-04T00:49:13.399Z,22.12
2022-11-04T00:50:17.544Z,22.1
2022-11-04T00:51:21.711Z,22.12
2022-11-04T00:52:25.930Z,22.11
2022-11-04T00:53:30.056Z,22.09
2022-11-04T00:54:34.133Z,22.11
2022-11-04T00:55:38.227Z,22.11
2022-11-04T00:56:42.365Z,22.1
2022-11-04T00:57:46.492Z,22.11
2022-11-04T00:58:50.584Z,22.09
2022-11-04T00:59:54.689Z,22.11
2022-11-04T01:00:58.840Z,22.12
2022-11-04T01:02:03.415Z,22.11
2022-11-04T01:03:08.240Z,22.08
2022-11-04T01:04:13.627Z,22.1
2022-11-04T01:05:17.756Z,22.09
2022-11-04T01:06:21.909Z,22.1
2022-11-04T01:07:26.136Z,22.09
2022-11-04T01:08:30.247Z,22.08
2022-11-04T01:09:34.364Z,22.1
2022-11-04T01:10:38.527Z,22.07
2022-11-04T01:11:42.614Z,22.08
2022-11-04T01:12:46.730Z,22.07
2022-11-04T01:13:50.874Z,22.08
2022-11-04T01:14:54.962Z,22.09
2022-11-04T01:15:59.069Z,22.09
2022-11-04T01:17:03.247Z,22.06
2022-11-04T01:18:07.597Z,22.07
2022-11-04T01:19:12.671Z,22.07
2022-11-04T01:20:16.789Z,22.06
2022-11-04T01:21:20.911Z,22.05
2022-11-04T01:22:25.016Z,22.05
2022-11-04T01:23:29.166Z,22.03
2022-11-04T01:24:33.268Z,22.04
2022-11-04T01:25:37.438Z,22.04
2022-11-04T01:26:41.558Z,22.03
2022-11-04T01:27:45.674Z,22
2022-11-04T01:28:49.817Z,22.02
2022-11-04T01:29:53.974Z,21.99
2022-11-04T01:30:58.111Z,22.01
2022-11-04T01:32:02.221Z,22.01
2022-11-04T01:33:06.417Z,22.01
2022-11-04T01:34:10.489Z,22.01
2022-11-04T01:35:14.657Z,22
2022-11-04T01:36:18.797Z,21.97
2022-11-04T01:37:22.913Z,21.99
2022-11-04T01:38:27.038Z,21.96
2022-11-04T01:39:31.172Z,21.98
2022-11-04T01:40:35.296Z,21.96
2022-11-04T01:41:39.429Z,21.98
2022-11-04T01:42:43.538Z,21.96
2022-11-04T01:43:47.705Z,21.98
2022-11-04T01:44:51.834Z,21.98
2022-11-04T01:45:55.976Z,21.96
2022-11-04T01:47:00.128Z,21.97
2022-11-04T01:48:04.268Z,21.95
2022-11-04T01:49:08.400Z,21.97
2022-11-04T01:50:12.525Z,21.96
2022-11-04T01:51:16.602Z,21.95
2022-11-04T01:52:20.762Z,21.93
2022-11-04T01:53:24.863Z,21.95
2022-11-04T01:54:29.024Z,21.93
2022-11-04T01:55:33.119Z,21.95
2022-11-04T01:56:37.276Z,21.94
2022-11-04T01:57:41.391Z,21.94
2022-11-04T01:58:45.523Z,21.94
2022-11-04T01:59:49.655Z,21.94
2022-11-04T02:00:53.818Z,21.94
2022-11-04T02:01:58.294Z,21.93
2022-11-04T02:03:02.830Z,21.93
2022-11-04T02:04:06.913Z,21.91
2022-11-04T02:05:11.208Z,21.93
2022-11-04T02:06:15.381Z,21.91
2022-11-04T02:07:19.490Z,21.91
2022-11-04T02:08:23.652Z,21.93
2022-11-04T02:09:27.797Z,21.93
2022-11-04T02:10:31.958Z,21.93
2022-11-04T02:11:36.078Z,21.92
2022-11-04T02:12:40.254Z,21.93
2022-11-04T02:13:44.354Z,21.92
2022-11-04T02:14:48.531Z,21.93
2022-11-04T02:15:52.701Z,21.91
2022-11-04T02:16:56.811Z,21.94
2022-11-04T02:18:00.929Z,21.95
2022-11-04T02:19:05.050Z,21.93
2022-11-04T02:20:09.168Z,21.94
2022-11-04T02:21:13.305Z,21.92
2022-11-04T02:22:17.446Z,21.93
2022-11-04T02:23:21.576Z,21.93
2022-11-04T02:24:25.750Z,21.9
2022-11-04T02:25:29.947Z,21.9
2022-11-04T02:26:34.119Z,21.9
2022-11-04T02:27:38.288Z,21.91
2022-11-04T02:28:42.472Z,21.91
2022-11-04T02:29:46.620Z,21.9
2022-11-04T02:30:50.712Z,21.92
2022-11-04T02:31:54.839Z,21.91
2022-11-04T02:32:58.952Z,21.89
2022-11-04T02:34:03.071Z,21.91
2022-11-04T02:35:07.190Z,21.9
2022-11-04T02:36:11.329Z,21.9
2022-11-04T02:37:15.558Z,21.89
2022-11-04T02:38:19.694Z,21.89
2022-11-04T02:39:23.808Z,21.88
2022-11-04T02:40:27.887Z,21.89
2022-11-04T02:41:32.004Z,21.87
2022-11-04T02:42:36.130Z,21.87
2022-11-04T02:43:40.264Z,21.86
2022-11-04T02:44:44.469Z,21.86
2022-11-04T02:45:48.645Z,21.87
2022-11-04T02:46:52.770Z,21.86
2022-11-04T02:47:56.888Z,21.86
2022-11-04T02:49:01.074Z,21.86
2022-11-04T02:50:05.207Z,21.87
2022-11-04T02:51:09.371Z,21.88
2022-11-04T02:52:13.486Z,21.85
2022-11-04T02:53:17.598Z,21.86
2022-11-04T02:54:21.762Z,21.86
2022-11-04T02:55:25.928Z,21.86
2022-11-04T02:56:30.029Z,21.85
2022-11-04T02:57:34.181Z,21.86
2022-11-04T02:58:38.363Z,21.86
2022-11-04T02:59:42.484Z,21.87
2022-11-04T03:00:46.638Z,21.89
2022-11-04T03:01:51.130Z,21.88
2022-11-04T03:02:55.789Z,21.89
2022-11-04T03:04:00.058Z,21.87
2022-11-04T03:05:04.205Z,21.86
2022-11-04T03:06:08.355Z,21.85
2022-11-04T03:08:17.172Z,21.87
2022-11-04T03:09:21.294Z,21.86
2022-11-04T03:10:25.464Z,21.87
2022-11-04T03:11:29.582Z,21.86
2022-11-04T03:12:33.713Z,21.84
2022-11-04T03:13:37.867Z,21.85
2022-11-04T03:14:42.033Z,21.83
2022-11-04T03:15:46.163Z,21.82
2022-11-04T03:16:50.256Z,21.85
2022-11-04T03:17:54.368Z,21.85
2022-11-04T03:18:58.487Z,21.85
2022-11-04T03:20:02.581Z,21.83
2022-11-04T03:21:06.735Z,21.83
2022-11-04T03:22:10.871Z,21.84
2022-11-04T03:23:15.017Z,21.83
2022-11-04T03:24:19.164Z,21.83
2022-11-04T03:25:23.283Z,21.82
2022-11-04T03:26:27.387Z,21.81
2022-11-04T03:27:31.545Z,21.81
2022-11-04T03:28:35.687Z,21.8
2022-11-04T03:29:39.824Z,21.8
2022-11-04T03:30:43.997Z,21.78
2022-11-04T03:31:48.118Z,21.8
2022-11-04T03:32:52.247Z,21.79
2022-11-04T03:33:56.362Z,21.79
2022-11-04T03:35:00.504Z,21.79
2022-11-04T03:36:04.631Z,21.77
2022-11-04T03:37:11.520Z,21.77
2022-11-04T03:38:15.657Z,21.77
2022-11-04T03:39:19.837Z,21.77
2022-11-04T03:40:23.983Z,21.77
2022-11-04T03:41:28.105Z,21.76
2022-11-04T03:42:32.277Z,21.78
2022-11-04T03:43:36.424Z,21.77
2022-11-04T03:44:40.556Z,21.77
2022-11-04T03:45:44.660Z,21.77
2022-11-04T03:46:48.801Z,21.77
2022-11-04T03:47:52.960Z,21.77
2022-11-04T03:48:57.059Z,21.77
2022-11-04T03:50:01.203Z,21.77
2022-11-04T03:51:05.317Z,21.78
2022-11-04T03:52:09.390Z,21.79
2022-11-04T03:53:14.003Z,21.8
2022-11-04T03:54:18.454Z,21.8
2022-11-04T03:55:22.571Z,21.84
2022-11-04T03:56:26.624Z,21.83
2022-11-04T03:57:30.688Z,21.86
2022-11-04T03:58:34.765Z,21.86
2022-11-04T03:59:38.845Z,21.9
2022-11-04T04:00:42.971Z,21.9
2022-11-04T04:01:47.142Z,21.88
2022-11-04T04:02:51.631Z,21.88
2022-11-04T04:03:55.738Z,21.89
2022-11-04T04:04:59.793Z,21.88
2022-11-04T04:06:03.892Z,21.88
2022-11-04T04:07:07.967Z,21.87
2022-11-04T04:08:12.146Z,21.88
2022-11-04T04:09:16.231Z,21.88
2022-11-04T04:10:20.361Z,21.87
2022-11-04T04:11:24.618Z,21.86
2022-11-04T04:12:28.698Z,21.87
2022-11-04T04:13:32.851Z,21.87
2022-11-04T04:14:37.002Z,21.87
2022-11-04T04:15:44.268Z,21.89
2022-11-04T04:16:49.747Z,21.9
2022-11-04T04:17:53.835Z,21.9
2022-11-04T04:18:58.692Z,21.92
2022-11-04T04:20:03.035Z,21.92
2022-11-04T04:21:07.119Z,21.95
2022-11-04T04:22:11.208Z,21.96
2022-11-04T04:23:15.290Z,21.94
2022-11-04T04:24:19.436Z,21.95
2022-11-04T04:25:23.511Z,21.96
2022-11-04T04:26:27.610Z,21.96
2022-11-04T04:27:31.712Z,21.96
2022-11-04T04:28:35.797Z,21.95
2022-11-04T04:29:39.868Z,21.94
2022-11-04T04:30:43.919Z,21.94
2022-11-04T04:31:48.109Z,21.92
2022-11-04T04:32:52.230Z,21.94
2022-11-04T04:33:56.301Z,21.94
2022-11-04T04:35:00.376Z,21.92
2022-11-04T04:36:04.446Z,21.94
2022-11-04T04:37:08.539Z,21.95
2022-11-04T04:38:12.621Z,21.93
2022-11-04T04:39:16.697Z,21.91
2022-11-04T04:40:24.760Z,21.99
2022-11-04T04:41:29.042Z,21.99
2022-11-04T04:42:33.115Z,22
2022-11-04T04:43:37.192Z,22
2022-11-04T04:44:41.241Z,21.99
2022-11-04T04:45:45.299Z,21.97
2022-11-04T04:46:49.350Z,21.98
2022-11-04T04:47:53.446Z,21.98
2022-11-04T04:48:57.834Z,21.97
2022-11-04T04:50:01.916Z,21.96
2022-11-04T04:51:06.103Z,21.96
2022-11-04T04:52:10.204Z,21.98
2022-11-04T04:53:14.303Z,21.97
2022-11-04T04:54:18.393Z,21.97
2022-11-04T04:55:22.497Z,21.97
2022-11-04T04:56:26.580Z,21.96
2022-11-04T04:57:30.672Z,21.96
2022-11-04T04:58:34.765Z,21.97
2022-11-04T04:59:38.888Z,21.95
2022-11-04T05:00:42.953Z,21.98
2022-11-04T05:01:47.141Z,21.96
2022-11-04T05:02:51.754Z,21.96
2022-11-04T05:03:55.825Z,21.98
2022-11-04T05:05:00.157Z,21.98
2022-11-04T05:06:04.655Z,21.98
2022-11-04T05:07:08.744Z,21.98
2022-11-04T05:08:13.043Z,21.98
2022-11-04T05:09:17.198Z,21.99
2022-11-04T05:10:21.320Z,21.96
2022-11-04T05:11:27.202Z,21.96
2022-11-04T05:12:31.495Z,21.98
2022-11-04T05:13:35.567Z,21.95
2022-11-04T05:14:39.623Z,21.95
2022-11-04T05:15:43.742Z,21.96
2022-11-04T05:16:47.840Z,21.95
2022-11-04T05:17:51.927Z,21.96
2022-11-04T05:18:56.018Z,21.96
2022-11-04T05:20:00.119Z,21.95
2022-11-04T05:21:04.238Z,21.95
2022-11-04T05:22:08.353Z,21.95
2022-11-04T05:23:12.448Z,21.94
2022-11-04T05:24:16.565Z,21.94
2022-11-04T05:25:20.646Z,21.95
2022-11-04T05:26:24.752Z,21.94
2022-11-04T05:27:28.822Z,21.94
2022-11-04T05:28:32.905Z,21.91
2022-11-04T05:29:36.993Z,21.93
2022-11-04T05:30:41.068Z,21.91
2022-11-04T05:31:45.191Z,21.92
2022-11-04T05:32:49.298Z,21.9
2022-11-04T05:33:53.398Z,21.92
2022-11-04T05:34:57.489Z,21.92
2022-11-04T05:36:01.580Z,21.92
2022-11-04T05:37:05.687Z,21.92
2022-11-04T05:38:09.751Z,21.9
2022-11-04T05:39:13.854Z,21.9
2022-11-04T05:40:17.963Z,21.9
2022-11-04T05:41:22.044Z,21.91
2022-11-04T05:42:26.133Z,21.89
2022-11-04T05:43:30.211Z,21.91
2022-11-04T05:44:34.290Z,21.9
2022-11-04T05:45:38.421Z,21.92
2022-11-04T05:46:42.498Z,21.92
2022-11-04T05:47:46.601Z,21.92
2022-11-04T05:50:06.323Z,21.92
2022-11-04T05:51:10.426Z,21.91
2022-11-04T05:52:14.539Z,21.92
2022-11-04T05:53:18.659Z,21.91
2022-11-04T05:54:22.917Z,21.93
2022-11-04T05:55:26.993Z,21.93
2022-11-04T05:56:31.101Z,21.93
2022-11-04T05:57:35.168Z,21.94
2022-11-04T05:58:39.292Z,21.92
2022-11-04T05:59:43.360Z,21.9
2022-11-04T06:00:47.471Z,21.92
2022-11-04T06:01:51.659Z,21.89
2022-11-04T06:02:56.180Z,21.91
2022-11-04T06:04:00.693Z,21.88
2022-11-04T06:05:04.997Z,21.9
2022-11-04T06:06:09.097Z,21.72
2022-11-04T06:07:13.202Z,21.87
2022-11-04T06:08:17.288Z,21.88
2022-11-04T06:09:21.388Z,21.87
2022-11-04T06:10:25.464Z,21.87
2022-11-04T06:11:29.557Z,21.87
2022-11-04T06:12:33.645Z,21.85
2022-11-04T06:13:37.757Z,21.87
2022-11-04T06:14:41.854Z,21.84
2022-11-04T06:15:45.999Z,21.86
2022-11-04T06:16:50.070Z,21.86
2022-11-04T06:17:54.143Z,21.84
2022-11-04T06:18:59.933Z,21.85
2022-11-04T06:20:18.278Z,21.85
2022-11-04T06:21:22.383Z,21.85
2022-11-04T06:22:26.476Z,21.85
2022-11-04T06:23:30.612Z,21.85
2022-11-04T06:24:35.843Z,21.86
2022-11-04T06:25:39.951Z,21.86
2022-11-04T06:26:44.071Z,21.84
2022-11-04T06:27:48.170Z,21.85
2022-11-04T06:28:52.256Z,21.83
2022-11-04T06:29:56.317Z,21.85
2022-11-04T06:31:00.420Z,21.85
2022-11-04T06:32:04.623Z,21.85
2022-11-04T06:33:08.750Z,21.85
2022-11-04T06:34:12.847Z,21.84
2022-11-04T06:35:16.931Z,21.83
2022-11-04T06:36:21.034Z,21.83
2022-11-04T06:37:25.123Z,21.82
2022-11-04T06:38:29.293Z,21.8
2022-11-04T06:39:33.378Z,21.81
2022-11-04T06:40:37.633Z,21.8
2022-11-04T06:41:42.792Z,21.77
2022-11-04T06:42:53.750Z,21.8
2022-11-04T06:43:57.847Z,21.81
2022-11-04T06:45:01.949Z,21.8
2022-11-04T06:46:06.116Z,21.8
2022-11-04T06:47:10.246Z,21.77
2022-11-04T06:48:14.314Z,21.76
2022-11-04T06:49:18.390Z,21.77
2022-11-04T06:50:22.488Z,21.76
2022-11-04T06:51:26.560Z,21.78
2022-11-04T06:52:30.705Z,21.79
2022-11-04T06:53:37.099Z,21.79
2022-11-04T06:54:41.185Z,21.78
2022-11-04T06:55:45.335Z,21.78
2022-11-04T06:56:49.405Z,21.77
2022-11-04T06:57:53.484Z,21.75
2022-11-04T06:58:57.545Z,21.76
2022-11-04T07:00:01.619Z,21.75
2022-11-04T07:01:11.243Z,21.73
2022-11-04T07:02:24.805Z,21.75
2022-11-04T07:03:29.341Z,21.74
2022-11-04T07:04:33.410Z,21.75
2022-11-04T07:05:37.468Z,21.74
2022-11-04T07:06:42.858Z,21.73
2022-11-04T07:07:48.452Z,21.7
2022-11-04T07:08:52.670Z,21.72
2022-11-04T07:09:56.765Z,21.72
2022-11-04T07:11:00.866Z,21.7
2022-11-04T07:12:04.993Z,21.72
2022-11-04T07:13:09.087Z,21.7
2022-11-04T07:14:13.161Z,21.72
2022-11-04T07:15:17.240Z,21.71
2022-11-04T07:16:29.513Z,21.71
2022-11-04T07:17:33.628Z,21.72
2022-11-04T07:18:37.869Z,21.69
2022-11-04T07:19:41.968Z,21.71
2022-11-04T07:20:46.070Z,21.7
2022-11-04T07:21:50.150Z,21.68
2022-11-04T07:22:54.229Z,21.7
2022-11-04T07:23:58.341Z,21.69
2022-11-04T07:25:02.434Z,21.69
2022-11-04T07:26:06.543Z,21.69
2022-11-04T07:27:10.676Z,21.69
2022-11-04T07:28:14.765Z,21.67
2022-11-04T07:29:18.834Z,21.69
2022-11-04T07:30:22.943Z,21.67
2022-11-04T07:31:27.033Z,21.67
2022-11-04T07:32:31.152Z,21.68
2022-11-04T07:33:35.252Z,21.68
2022-11-04T07:34:39.331Z,21.69
2022-11-04T07:35:43.413Z,21.69
2022-11-04T07:36:47.485Z,21.67
2022-11-04T07:37:51.597Z,21.68
2022-11-04T07:38:55.699Z,21.69
2022-11-04T07:39:59.773Z,21.68
2022-11-04T07:41:03.844Z,21.66
2022-11-04T07:42:07.919Z,21.67
2022-11-04T07:43:11.991Z,21.68
2022-11-04T07:44:16.072Z,21.66
2022-11-04T07:45:20.175Z,21.67
2022-11-04T07:46:24.255Z,21.67
2022-11-04T07:47:28.329Z,21.65
2022-11-04T07:48:32.396Z,21.68
2022-11-04T07:49:36.570Z,21.68
2022-11-04T07:50:40.857Z,21.66
2022-11-04T07:51:44.951Z,21.66
2022-11-04T07:52:49.046Z,21.67
2022-11-04T07:53:53.158Z,21.66
2022-11-04T07:54:57.263Z,21.68
2022-11-04T07:56:01.464Z,21.67
2022-11-04T07:57:05.628Z,21.69
2022-11-04T07:58:09.730Z,21.68
2022-11-04T07:59:13.829Z,21.67
2022-11-04T08:00:17.925Z,21.65
2022-11-04T08:01:22.039Z,21.67
2022-11-04T08:02:29.892Z,21.67
2022-11-04T08:03:38.730Z,21.67
2022-11-04T08:04:43.209Z,21.67
2022-11-04T08:05:47.294Z,21.65
2022-11-04T08:06:51.371Z,21.66
2022-11-04T08:07:55.535Z,21.66
2022-11-04T08:08:59.716Z,21.65
2022-11-04T08:10:04.030Z,21.65
2022-11-04T08:11:10.457Z,21.63
2022-11-04T08:12:20.963Z,21.65
2022-11-04T08:13:25.085Z,21.65
2022-11-04T08:14:29.185Z,21.63
2022-11-04T08:15:33.260Z,21.65
2022-11-04T08:16:37.351Z,21.64
2022-11-04T08:17:41.420Z,21.64
2022-11-04T08:18:45.501Z,21.64
2022-11-04T08:19:49.594Z,21.64
2022-11-04T08:20:53.693Z,21.64
2022-11-04T08:21:57.809Z,21.62
2022-11-04T08:23:01.899Z,21.62
2022-11-04T08:24:06.019Z,21.64
2022-11-04T08:25:10.258Z,21.61
2022-11-04T08:26:14.349Z,21.61
2022-11-04T08:27:18.443Z,21.64
2022-11-04T08:28:22.546Z,21.62
2022-11-04T08:29:26.623Z,21.64
2022-11-04T08:30:30.708Z,21.62
2022-11-04T08:31:34.794Z,21.62
2022-11-04T08:32:38.865Z,21.64
2022-11-04T08:33:42.932Z,21.63
2022-11-04T08:34:47.055Z,21.64
2022-11-04T08:35:51.116Z,21.62
2022-11-04T08:36:55.212Z,21.62
2022-11-04T08:37:59.297Z,21.66
2022-11-04T08:39:09.141Z,21.65
2022-11-04T08:40:14.819Z,21.66
2022-11-04T08:41:18.905Z,21.64
2022-11-04T08:42:23.019Z,21.66
2022-11-04T08:43:27.110Z,21.68
2022-11-04T08:44:31.209Z,21.65
2022-11-04T08:45:35.455Z,21.67
2022-11-04T08:46:39.570Z,21.68
2022-11-04T08:47:43.686Z,21.68
2022-11-04T08:48:47.803Z,21.67
2022-11-04T08:49:51.889Z,21.69
2022-11-04T08:50:56.066Z,21.69
2022-11-04T08:52:00.139Z,21.66
2022-11-04T08:53:04.251Z,21.7
2022-11-04T08:54:08.724Z,21.69
2022-11-04T08:55:12.831Z,21.7
2022-11-04T08:56:16.935Z,21.68
2022-11-04T08:57:21.024Z,21.69
2022-11-04T08:58:25.108Z,21.69
2022-11-04T08:59:29.238Z,21.69
2022-11-04T09:00:33.314Z,21.7
2022-11-04T09:01:37.540Z,21.68
2022-11-04T09:02:41.830Z,21.68
2022-11-04T09:03:46.002Z,21.71
2022-11-04T09:04:50.366Z,21.71
2022-11-04T09:05:54.561Z,21.73
2022-11-04T09:06:59.296Z,21.72
2022-11-04T09:08:10.828Z,21.73
2022-11-04T09:09:14.942Z,21.76
2022-11-04T09:10:19.038Z,21.74
2022-11-04T09:11:23.136Z,21.76
2022-11-04T09:12:27.222Z,21.77
2022-11-04T09:13:34.326Z,21.77
2022-11-04T09:14:43.292Z,21.75
2022-11-04T09:15:47.382Z,21.78
2022-11-04T09:16:51.481Z,21.77
2022-11-04T09:17:55.593Z,21.78
2022-11-04T09:18:59.669Z,21.77
2022-11-04T09:20:03.797Z,21.78
2022-11-04T09:21:07.913Z,21.78
2022-11-04T09:22:11.996Z,21.78
2022-11-04T09:23:16.088Z,21.79
2022-11-04T09:24:20.210Z,21.78
2022-11-04T09:25:24.295Z,21.77
2022-11-04T09:26:28.391Z,21.78
2022-11-04T09:27:32.486Z,21.78
2022-11-04T09:28:36.581Z,21.79
2022-11-04T09:29:40.679Z,21.79
2022-11-04T09:30:44.875Z,21.79
2022-11-04T09:31:48.943Z,21.77
2022-11-04T09:32:53.135Z,21.78
2022-11-04T09:33:57.265Z,21.79
2022-11-04T09:35:01.452Z,21.82
2022-11-04T09:36:05.536Z,21.8
2022-11-04T09:37:09.599Z,21.82
2022-11-04T09:38:13.673Z,21.77
2022-11-04T09:39:17.789Z,21.83
2022-11-04T09:40:21.906Z,21.81
2022-11-04T09:41:26.100Z,21.81
2022-11-04T09:42:30.220Z,21.83
2022-11-04T09:43:34.384Z,21.84
2022-11-04T09:44:53.581Z,21.85
2022-11-04T09:46:25.726Z,21.86
2022-11-04T09:47:29.897Z,21.86
2022-11-04T09:48:33.974Z,21.87
2022-11-04T09:49:38.040Z,21.87
2022-11-04T09:50:42.163Z,21.87
2022-11-04T09:51:55.068Z,21.87
2022-11-04T09:52:59.675Z,21.87
2022-11-04T09:54:03.761Z,21.89
2022-11-04T09:55:07.875Z,21.9
2022-11-04T09:56:11.942Z,21.89
2022-11-04T09:57:16.046Z,21.9
2022-11-04T09:58:20.238Z,21.9
2022-11-04T09:59:24.624Z,21.92
2022-11-04T10:00:28.718Z,21.92
2022-11-04T10:01:32.979Z,21.91
2022-11-04T10:02:37.613Z,21.91
2022-11-04T10:03:41.884Z,21.9
2022-11-04T10:04:45.962Z,21.7
2022-11-04T10:05:50.068Z,21.95
2022-11-04T10:06:54.147Z,21.95
2022-11-04T10:07:58.289Z,21.96
2022-11-04T10:09:02.368Z,21.94
2022-11-04T10:10:06.477Z,21.95
2022-11-04T10:11:10.585Z,21.94
2022-11-04T10:12:14.661Z,21.93
2022-11-04T10:13:18.765Z,21.91
2022-11-04T10:14:22.872Z,21.91
2022-11-04T10:15:26.967Z,21.9
2022-11-04T10:16:31.068Z,21.89
2022-11-04T10:17:35.162Z,21.89
2022-11-04T10:18:39.272Z,21.87
2022-11-04T10:19:43.347Z,21.89
2022-11-04T10:20:47.434Z,21.88
2022-11-04T10:21:51.548Z,21.88
2022-11-04T10:22:55.642Z,21.87
2022-11-04T10:23:59.758Z,21.9
2022-11-04T10:25:03.841Z,21.91
2022-11-04T10:26:07.931Z,21.9
2022-11-04T10:27:12.063Z,21.93
2022-11-04T10:28:16.155Z,21.94
2022-11-04T10:29:20.388Z,21.95
2022-11-04T10:30:24.505Z,21.95
2022-11-04T10:31:28.595Z,21.94
2022-11-04T10:32:32.682Z,21.96
2022-11-04T10:33:36.772Z,21.94
2022-11-04T10:34:40.868Z,21.96
2022-11-04T10:35:44.967Z,21.96
2022-11-04T10:36:49.045Z,21.96
2022-11-04T10:37:53.153Z,21.96
2022-11-04T10:38:57.235Z,21.96
2022-11-04T10:40:01.491Z,21.94
2022-11-04T10:41:07.315Z,21.95
2022-11-04T10:42:11.537Z,21.96
2022-11-04T10:43:15.623Z,21.96
2022-11-04T10:44:19.693Z,21.96
2022-11-04T10:45:23.779Z,21.95
2022-11-04T10:46:27.844Z,21.96
2022-11-04T10:47:37.864Z,21.96
2022-11-04T10:48:41.968Z,21.95
2022-11-04T10:50:00.424Z,21.93
2022-11-04T10:51:32.946Z,21.94
2022-11-04T10:52:37.012Z,21.93
2022-11-04T10:53:41.145Z,21.9
2022-11-04T10:54:45.250Z,21.92
2022-11-04T10:55:49.352Z,21.91
2022-11-04T10:56:53.541Z,21.92
2022-11-04T10:57:57.811Z,21.9
2022-11-04T10:59:01.921Z,21.91
2022-11-04T11:00:06.016Z,21.9
2022-11-04T11:01:14.889Z,21.89
2022-11-04T11:02:19.435Z,21.89
2022-11-04T11:03:23.877Z,21.87
2022-11-04T11:04:27.987Z,21.88
2022-11-04T11:05:32.108Z,21.86
2022-11-04T11:06:36.221Z,21.87
2022-11-04T11:07:40.300Z,21.87
2022-11-04T11:08:44.430Z,21.85
2022-11-04T11:09:52.567Z,21.86
2022-11-04T11:10:57.977Z,21.86
2022-11-04T11:12:02.118Z,21.84
2022-11-04T11:13:46.887Z,21.84
2022-11-04T11:14:50.973Z,21.85
2022-11-04T11:15:55.057Z,21.85
2022-11-04T11:16:59.139Z,21.85
2022-11-04T11:18:03.257Z,21.85
2022-11-04T11:19:07.347Z,21.85
2022-11-04T11:20:11.479Z,21.85
2022-11-04T11:21:15.555Z,21.85
2022-11-04T11:22:19.655Z,21.84
2022-11-04T11:23:23.732Z,21.82
2022-11-04T11:24:27.839Z,21.84
2022-11-04T11:25:31.967Z,21.84
2022-11-04T11:26:36.047Z,21.84
2022-11-04T11:27:40.162Z,21.83
2022-11-04T11:28:44.237Z,21.84
2022-11-04T11:29:48.325Z,21.81
2022-11-04T11:30:52.422Z,21.83
2022-11-04T11:31:56.553Z,21.8
2022-11-04T11:33:00.661Z,21.82
2022-11-04T11:34:04.745Z,21.81
2022-11-04T11:35:11.653Z,21.8
2022-11-04T11:36:15.927Z,21.8
2022-11-04T11:37:20.008Z,21.82
2022-11-04T11:38:24.203Z,21.81
2022-11-04T11:39:28.408Z,21.79
2022-11-04T11:40:32.496Z,21.79
2022-11-04T11:41:39.652Z,21.79
2022-11-04T11:42:54.994Z,21.8
2022-11-04T11:43:59.427Z,21.8
2022-11-04T11:45:03.500Z,21.79
2022-11-04T11:46:07.642Z,21.78
2022-11-04T11:47:11.745Z,21.79
2022-11-04T11:48:15.817Z,21.78
2022-11-04T11:49:19.893Z,21.8
2022-11-04T11:50:23.963Z,21.77
2022-11-04T11:51:31.935Z,21.77
2022-11-04T11:52:36.417Z,21.8
2022-11-04T11:53:40.626Z,21.79
2022-11-04T11:54:44.814Z,21.77
2022-11-04T11:55:48.895Z,21.77
2022-11-04T11:57:12.427Z,21.78
2022-11-04T12:01:06.823Z,21.77
2022-11-04T12:02:27.602Z,21.76
2022-11-04T12:09:52.727Z,21.75
2022-11-04T12:10:56.835Z,21.76
2022-11-04T12:12:00.904Z,21.76
2022-11-04T12:13:05.016Z,21.73
2022-11-04T12:14:25.186Z,21.74
2022-11-04T12:15:29.297Z,21.75
2022-11-04T12:16:33.396Z,21.73
2022-11-04T12:17:37.501Z,21.75
2022-11-04T12:18:41.569Z,21.74
2022-11-04T12:19:45.667Z,21.75
2022-11-04T12:20:49.758Z,21.74
2022-11-04T12:21:53.837Z,21.74
2022-11-04T12:22:57.911Z,21.72
2022-11-04T12:24:01.999Z,21.74
2022-11-04T12:25:06.116Z,21.74
2022-11-04T12:26:10.200Z,21.71
2022-11-04T12:27:14.296Z,21.73
2022-11-04T12:28:18.382Z,21.71
2022-11-04T12:29:22.500Z,21.71
2022-11-04T12:30:32.499Z,21.73
2022-11-04T12:31:41.660Z,21.73
2022-11-04T12:32:45.746Z,21.72
2022-11-04T12:33:49.818Z,21.72
2022-11-04T12:34:53.897Z,21.71
2022-11-04T12:35:57.993Z,21.72
2022-11-04T12:37:02.068Z,21.71
2022-11-04T12:38:06.154Z,21.72
2022-11-04T12:39:10.244Z,21.7
2022-11-04T12:40:14.433Z,21.71
2022-11-04T12:41:37.880Z,21.69
2022-11-04T12:43:23.611Z,21.71
2022-11-04T12:44:27.703Z,21.71
2022-11-04T12:45:31.789Z,21.7
2022-11-04T12:46:35.872Z,21.68
2022-11-04T12:47:39.957Z,21.7
2022-11-04T12:48:44.038Z,21.71
2022-11-04T12:49:48.138Z,21.68
2022-11-04T12:50:52.200Z,21.7
2022-11-04T12:51:56.286Z,21.69
2022-11-04T12:53:00.618Z,21.69
2022-11-04T12:54:04.736Z,21.69
2022-11-04T12:55:08.818Z,21.68
2022-11-04T12:56:12.905Z,21.69
2022-11-04T12:57:17.015Z,21.68
2022-11-04T12:58:21.086Z,21.67
2022-11-04T12:59:25.150Z,21.69
2022-11-04T13:00:29.250Z,21.69
2022-11-04T13:01:33.481Z,21.68
2022-11-04T13:02:38.061Z,21.68
2022-11-04T13:03:42.361Z,21.69
2022-11-04T13:04:46.441Z,21.68
2022-11-04T13:05:50.528Z,21.68
2022-11-04T13:06:54.658Z,21.66
2022-11-04T13:07:58.785Z,21.68
2022-11-04T13:09:02.854Z,21.68
2022-11-04T13:10:06.955Z,21.66
2022-11-04T13:11:11.045Z,21.68
2022-11-04T13:12:15.132Z,21.68
2022-11-04T13:13:19.256Z,21.65
2022-11-04T13:14:23.331Z,21.65
2022-11-04T13:15:27.417Z,21.67
2022-11-04T13:16:31.539Z,21.65
2022-11-04T13:17:35.630Z,21.68
2022-11-04T13:18:39.715Z,21.68
2022-11-04T13:19:43.822Z,21.67
2022-11-04T13:20:47.904Z,21.66
2022-11-04T13:21:51.993Z,21.64
2022-11-04T13:23:00.445Z,21.67
2022-11-04T13:24:06.909Z,21.66
2022-11-04T13:25:10.999Z,21.67
2022-11-04T13:26:15.087Z,21.65
2022-11-04T13:27:19.185Z,21.67
2022-11-04T13:28:23.348Z,21.66
2022-11-04T13:29:27.429Z,21.65
2022-11-04T13:30:31.545Z,21.66
2022-11-04T13:31:35.633Z,21.66
2022-11-04T13:32:39.714Z,21.66
2022-11-04T13:33:44.176Z,21.67
2022-11-04T13:34:48.289Z,21.66
2022-11-04T13:35:52.401Z,21.66
2022-11-04T13:36:56.483Z,21.63
2022-11-04T13:38:00.552Z,21.65
2022-11-04T13:39:04.635Z,21.64
2022-11-04T13:40:08.760Z,21.64
2022-11-04T13:41:16.181Z,21.65
2022-11-04T13:42:24.929Z,21.63
2022-11-04T13:43:29.212Z,21.65
2022-11-04T13:44:33.305Z,21.66
2022-11-04T13:45:37.407Z,21.64
2022-11-04T13:46:41.499Z,21.65
2022-11-04T13:47:45.595Z,21.65
2022-11-04T13:48:49.717Z,21.62
2022-11-04T13:49:53.822Z,21.64
2022-11-04T13:50:57.890Z,21.62
2022-11-04T13:52:01.960Z,21.65
2022-11-04T13:53:06.141Z,21.64
2022-11-04T13:54:11.199Z,21.64
2022-11-04T13:55:15.389Z,21.64
2022-11-04T13:56:32.589Z,21.61
2022-11-04T13:57:38.544Z,21.58
2022-11-04T13:58:46.959Z,21.63
2022-11-04T13:59:51.444Z,21.6
2022-11-04T14:00:55.521Z,21.6
2022-11-04T14:01:59.703Z,21.63
2022-11-04T14:03:04.134Z,21.63
2022-11-04T14:04:08.437Z,21.63
2022-11-04T14:05:12.525Z,21.63
2022-11-04T14:06:16.593Z,21.62
2022-11-04T14:07:20.696Z,21.63
2022-11-04T14:08:24.796Z,21.61